sensor_id;sensor_type;location;lat;lon;timestamp;pressure;altitude;pressure_sealevel;temperature;humidity
3250;BME280;1637;42.020;23.992;2022-12-29T00:01:29;93701.41;;;2.37;100.00
3250;BME280;1637;42.020;23.992;2022-12-29T00:03:56;93698.97;;;2.32;100.00
3250;BME280;1637;42.020;23.992;2022-12-29T00:06:23;93702.13;;;1.93;100.00
3250;BME280;1637;42.020;23.992;2022-12-29T00:08:50;93711.06;;;2.21;100.00
3250;BME280;1637;42.020;23.992;2022-12-29T00:11:22;93658.09;;;1.85;100.00
3250;BME280;1637;42.020;23.992;2022-12-29T00:13:49;93706.66;;;2.25;100.00
3250;BME280;1637;42.020;23.992;2022-12-29T00:16:34;93712.56;;;2.55;100.00
3250;BME280;1637;42.020;23.992;2022-12-29T00:19:02;93709.72;;;2.60;100.00
3250;BME280;1637;42.020;23.992;2022-12-29T00:21:30;93711.53;;;2.35;100.00
3250;BME280;1637;42.020;23.992;2022-12-29T00:24:16;93719.13;;;2.70;100.00
3250;BME280;1637;42.020;23.992;2022-12-29T00:27:11;93711.59;;;2.72;100.00
3250;BME280;1637;42.020;23.992;2022-12-29T00:29:56;93724.88;;;2.51;100.00
3250;BME280;1637;42.020;23.992;2022-12-29T00:32:40;93725.78;;;2.43;100.00
3250;BME280;1637;42.020;23.992;2022-12-29T00:35:27;93722.94;;;2.48;100.00
3250;BME280;1637;42.020;23.992;2022-12-29T00:37:55;93720.97;;;2.24;100.00
3250;BME280;1637;42.020;23.992;2022-12-29T00:40:41;93725.38;;;2.32;100.00
3250;BME280;1637;42.020;23.992;2022-12-29T00:43:27;93721.69;;;2.13;100.00
3250;BME280;1637;42.020;23.992;2022-12-29T00:46:11;93720.72;;;2.17;100.00
3250;BME280;1637;42.020;23.992;2022-12-29T00:48:38;93724.13;;;2.18;100.00
3250;BME280;1637;42.020;23.992;2022-12-29T00:51:22;93729.88;;;2.20;100.00
3250;BME280;1637;42.020;23.992;2022-12-29T00:53:49;93735.63;;;2.22;100.00
3250;BME280;1637;42.020;23.992;2022-12-29T00:56:16;93733.88;;;2.26;100.00
3250;BME280;1637;42.020;23.992;2022-12-29T00:58:44;93735.28;;;2.23;100.00
3250;BME280;1637;42.020;23.992;2022-12-29T01:01:11;93729.97;;;2.56;100.00
3250;BME280;1637;42.020;23.992;2022-12-29T01:03:38;93736.50;;;2.71;100.00
3250;BME280;1637;42.020;23.992;2022-12-29T01:06:07;93719.84;;;2.46;100.00
3250;BME280;1637;42.020;23.992;2022-12-29T01:08:34;93743.66;;;2.70;100.00
3250;BME280;1637;42.020;23.992;2022-12-29T01:11:03;93740.59;;;2.35;100.00
3250;BME280;1637;42.020;23.992;2022-12-29T01:13:29;93754.94;;;2.14;100.00
3250;BME280;1637;42.020;23.992;2022-12-29T01:15:57;93728.78;;;2.21;100.00
3250;BME280;1637;42.020;23.992;2022-12-29T01:18:25;93731.88;;;2.23;100.00
3250;BME280;1637;42.020;23.992;2022-12-29T01:20:58;93687.94;;;1.97;100.00
3250;BME280;1637;42.020;23.992;2022-12-29T01:23:26;93725.81;;;2.22;100.00
3250;BME280;1637;42.020;23.992;2022-12-29T01:25:53;93723.31;;;2.26;100.00
3250;BME280;1637;42.020;23.992;2022-12-29T01:28:20;93728.75;;;2.41;100.00
3250;BME280;1637;42.020;23.992;2022-12-29T01:30:47;93726.09;;;2.41;100.00
3250;BME280;1637;42.020;23.992;2022-12-29T01:33:15;93715.69;;;2.24;100.00
3250;BME280;1637;42.020;23.992;2022-12-29T01:35:42;93711.16;;;1.92;100.00
3250;BME280;1637;42.020;23.992;2022-12-29T01:38:09;93712.06;;;1.96;100.00
3250;BME280;1637;42.020;23.992;2022-12-29T01:40:43;93668.41;;;1.57;100.00
3250;BME280;1637;42.020;23.992;2022-12-29T01:43:11;93704.41;;;1.82;100.00
3250;BME280;1637;42.020;23.992;2022-12-29T01:45:39;93704.00;;;1.71;100.00
3250;BME280;1637;42.020;23.992;2022-12-29T01:48:09;93697.91;;;1.59;100.00
3250;BME280;1637;42.020;23.992;2022-12-29T01:50:40;93711.03;;;1.67;100.00
3250;BME280;1637;42.020;23.992;2022-12-29T01:53:09;93690.66;;;1.68;100.00
3250;BME280;1637;42.020;23.992;2022-12-29T01:55:40;93692.28;;;1.81;100.00
3250;BME280;1637;42.020;23.992;2022-12-29T01:58:10;93673.19;;;1.63;100.00
3250;BME280;1637;42.020;23.992;2022-12-29T02:00:39;93681.75;;;1.93;100.00
3250;BME280;1637;42.020;23.992;2022-12-29T02:03:06;93646.00;;;1.63;100.00
3250;BME280;1637;42.020;23.992;2022-12-29T02:05:39;93680.25;;;1.51;100.00
3250;BME280;1637;42.020;23.992;2022-12-29T02:08:09;93666.22;;;1.59;100.00
3250;BME280;1637;42.020;23.992;2022-12-29T02:10:36;93697.91;;;1.80;100.00
3250;BME280;1637;42.020;23.992;2022-12-29T02:13:04;93680.75;;;1.86;100.00
3250;BME280;1637;42.020;23.992;2022-12-29T02:15:37;93685.47;;;2.13;100.00
3250;BME280;1637;42.020;23.992;2022-12-29T02:18:18;93683.28;;;2.48;100.00
3250;BME280;1637;42.020;23.992;2022-12-29T02:27:31;93672.44;;;2.41;100.00
3250;BME280;1637;42.020;23.992;2022-12-29T02:30:07;93675.09;;;2.41;100.00
3250;BME280;1637;42.020;23.992;2022-12-29T02:32:45;93672.78;;;2.39;100.00
3250;BME280;1637;42.020;23.992;2022-12-29T02:35:23;93667.03;;;2.37;100.00
3250;BME280;1637;42.020;23.992;2022-12-29T02:37:58;93689.66;;;2.47;100.00
3250;BME280;1637;42.020;23.992;2022-12-29T02:40:34;93663.09;;;2.44;100.00
3250;BME280;1637;42.020;23.992;2022-12-29T02:43:07;93651.97;;;2.50;100.00
3250;BME280;1637;42.020;23.992;2022-12-29T02:45:45;93649.44;;;2.54;100.00
3250;BME280;1637;42.020;23.992;2022-12-29T02:48:18;93651.09;;;2.46;100.00
3250;BME280;1637;42.020;23.992;2022-12-29T02:50:53;93665.66;;;2.07;100.00
3250;BME280;1637;42.020;23.992;2022-12-29T02:53:23;93650.59;;;2.32;100.00
3250;BME280;1637;42.020;23.992;2022-12-29T02:56:05;93658.06;;;2.05;100.00
3250;BME280;1637;42.020;23.992;2022-12-29T02:58:32;93656.38;;;2.01;100.00
3250;BME280;1637;42.020;23.992;2022-12-29T03:01:16;93648.06;;;1.90;100.00
3250;BME280;1637;42.020;23.992;2022-12-29T03:03:55;93646.75;;;1.84;100.00
3250;BME280;1637;42.020;23.992;2022-12-29T03:06:33;93617.63;;;1.72;100.00
3250;BME280;1637;42.020;23.992;2022-12-29T03:09:09;93652.31;;;2.03;100.00
3250;BME280;1637;42.020;23.992;2022-12-29T03:11:45;93651.34;;;1.87;100.00
3250;BME280;1637;42.020;23.992;2022-12-29T03:14:34;93649.13;;;1.77;100.00
3250;BME280;1637;42.020;23.992;2022-12-29T03:17:25;93640.91;;;1.91;100.00
3250;BME280;1637;42.020;23.992;2022-12-29T03:20:01;93649.25;;;1.81;100.00
3250;BME280;1637;42.020;23.992;2022-12-29T03:22:30;93648.63;;;1.84;100.00
3250;BME280;1637;42.020;23.992;2022-12-29T03:25:02;93610.72;;;1.26;100.00
3250;BME280;1637;42.020;23.992;2022-12-29T03:27:34;93644.19;;;1.55;100.00
3250;BME280;1637;42.020;23.992;2022-12-29T03:30:04;93656.63;;;1.54;100.00
3250;BME280;1637;42.020;23.992;2022-12-29T03:32:33;93657.53;;;1.58;100.00
3250;BME280;1637;42.020;23.992;2022-12-29T03:35:04;93659.25;;;1.54;100.00
3250;BME280;1637;42.020;23.992;2022-12-29T03:37:36;93655.66;;;1.59;100.00
3250;BME280;1637;42.020;23.992;2022-12-29T03:40:06;93654.09;;;1.79;100.00
3250;BME280;1637;42.020;23.992;2022-12-29T03:42:35;93662.50;;;1.93;100.00
3250;BME280;1637;42.020;23.992;2022-12-29T03:45:04;93636.53;;;1.62;100.00
3250;BME280;1637;42.020;23.992;2022-12-29T03:47:31;93662.50;;;1.93;100.00
3250;BME280;1637;42.020;23.992;2022-12-29T03:49:58;93658.63;;;1.90;100.00
3250;BME280;1637;42.020;23.992;2022-12-29T03:52:26;93651.88;;;2.01;100.00
3250;BME280;1637;42.020;23.992;2022-12-29T03:54:53;93655.00;;;1.83;100.00
3250;BME280;1637;42.020;23.992;2022-12-29T03:57:20;93653.66;;;1.77;100.00
3250;BME280;1637;42.020;23.992;2022-12-29T03:59:47;93656.28;;;1.56;100.00
3250;BME280;1637;42.020;23.992;2022-12-29T04:02:14;93653.84;;;1.51;100.00
3250;BME280;1637;42.020;23.992;2022-12-29T04:04:41;93651.34;;;1.54;100.00
3250;BME280;1637;42.020;23.992;2022-12-29T04:07:07;93655.94;;;1.45;100.00
3250;BME280;1637;42.020;23.992;2022-12-29T04:09:36;93667.63;;;1.35;100.00
3250;BME280;1637;42.020;23.992;2022-12-29T04:12:03;93669.13;;;1.24;100.00
3250;BME280;1637;42.020;23.992;2022-12-29T04:14:30;93680.09;;;1.26;100.00
3250;BME280;1637;42.020;23.992;2022-12-29T04:16:57;93667.75;;;1.18;100.00
3250;BME280;1637;42.020;23.992;2022-12-29T04:19:23;93667.34;;;1.28;100.00
3250;BME280;1637;42.020;23.992;2022-12-29T04:21:50;93668.44;;;1.27;100.00
3250;BME280;1637;42.020;23.992;2022-12-29T04:24:17;93674.81;;;1.26;100.00
3250;BME280;1637;42.020;23.992;2022-12-29T04:26:45;93675.72;;;1.30;100.00
3250;BME280;1637;42.020;23.992;2022-12-29T04:29:12;93681.13;;;1.34;100.00
3250;BME280;1637;42.020;23.992;2022-12-29T04:31:39;93672.63;;;1.28;100.00
3250;BME280;1637;42.020;23.992;2022-12-29T04:34:06;93646.00;;;1.21;100.00
3250;BME280;1637;42.020;23.992;2022-12-29T04:36:33;93644.88;;;1.01;100.00
3250;BME280;1637;42.020;23.992;2022-12-29T04:38:59;93683.72;;;1.43;100.00
3250;BME280;1637;42.020;23.992;2022-12-29T04:41:26;93701.03;;;1.31;100.00
3250;BME280;1637;42.020;23.992;2022-12-29T04:43:55;93687.31;;;1.38;100.00
3250;BME280;1637;42.020;23.992;2022-12-29T04:46:21;93677.03;;;1.24;100.00
3250;BME280;1637;42.020;23.992;2022-12-29T04:48:48;93681.06;;;1.22;100.00
3250;BME280;1637;42.020;23.992;2022-12-29T04:51:15;93685.75;;;1.16;100.00
3250;BME280;1637;42.020;23.992;2022-12-29T04:53:42;93685.13;;;1.19;100.00
3250;BME280;1637;42.020;23.992;2022-12-29T04:56:09;93687.03;;;1.10;100.00
3250;BME280;1637;42.020;23.992;2022-12-29T04:58:36;93691.66;;;1.13;100.00
3250;BME280;1637;42.020;23.992;2022-12-29T05:01:04;93692.84;;;1.24;100.00
3250;BME280;1637;42.020;23.992;2022-12-29T05:03:31;93687.94;;;1.14;100.00
3250;BME280;1637;42.020;23.992;2022-12-29T05:05:58;93686.00;;;1.02;100.00
3250;BME280;1637;42.020;23.992;2022-12-29T05:08:25;93669.78;;;0.83;100.00
3250;BME280;1637;42.020;23.992;2022-12-29T05:10:52;93681.44;;;1.12;100.00
3250;BME280;1637;42.020;23.992;2022-12-29T05:13:18;93686.78;;;1.03;100.00
3250;BME280;1637;42.020;23.992;2022-12-29T05:15:49;93684.47;;;0.93;100.00
3250;BME280;1637;42.020;23.992;2022-12-29T05:18:19;93690.94;;;1.04;100.00
3250;BME280;1637;42.020;23.992;2022-12-29T05:20:46;93700.53;;;1.09;100.00
3250;BME280;1637;42.020;23.992;2022-12-29T05:23:13;93691.53;;;1.10;100.00
3250;BME280;1637;42.020;23.992;2022-12-29T05:25:43;93687.53;;;1.03;100.00
3250;BME280;1637;42.020;23.992;2022-12-29T05:28:11;93689.44;;;0.94;100.00
3250;BME280;1637;42.020;23.992;2022-12-29T05:30:38;93695.34;;;0.91;100.00
3250;BME280;1637;42.020;23.992;2022-12-29T05:33:05;93689.94;;;0.88;100.00
3250;BME280;1637;42.020;23.992;2022-12-29T05:35:34;93691.31;;;0.94;100.00
3250;BME280;1637;42.020;23.992;2022-12-29T05:38:00;93689.75;;;0.93;100.00
3250;BME280;1637;42.020;23.992;2022-12-29T05:40:27;93692.53;;;0.96;100.00
3250;BME280;1637;42.020;23.992;2022-12-29T05:42:54;93692.09;;;0.86;100.00
3250;BME280;1637;42.020;23.992;2022-12-29T05:45:21;93684.56;;;0.76;100.00
3250;BME280;1637;42.020;23.992;2022-12-29T05:47:47;93688.06;;;0.59;100.00
3250;BME280;1637;42.020;23.992;2022-12-29T05:50:14;93690.25;;;0.48;100.00
3250;BME280;1637;42.020;23.992;2022-12-29T05:52:44;93692.41;;;0.55;100.00
3250;BME280;1637;42.020;23.992;2022-12-29T05:55:11;93689.16;;;0.58;100.00
3250;BME280;1637;42.020;23.992;2022-12-29T05:57:38;93695.75;;;0.73;100.00
3250;BME280;1637;42.020;23.992;2022-12-29T06:00:06;93694.25;;;0.54;100.00
3250;BME280;1637;42.020;23.992;2022-12-29T06:02:33;93642.00;;;0.18;100.00
3250;BME280;1637;42.020;23.992;2022-12-29T06:05:00;93681.41;;;0.44;100.00
3250;BME280;1637;42.020;23.992;2022-12-29T06:07:27;93696.44;;;0.52;100.00
3250;BME280;1637;42.020;23.992;2022-12-29T06:09:55;93698.94;;;0.49;100.00
3250;BME280;1637;42.020;23.992;2022-12-29T06:12:22;93684.66;;;0.50;100.00
3250;BME280;1637;42.020;23.992;2022-12-29T06:14:49;93693.66;;;0.87;100.00
3250;BME280;1637;42.020;23.992;2022-12-29T06:17:16;93667.97;;;0.37;100.00
3250;BME280;1637;42.020;23.992;2022-12-29T06:19:42;93688.53;;;0.52;100.00
3250;BME280;1637;42.020;23.992;2022-12-29T06:22:09;93700.16;;;0.51;100.00
3250;BME280;1637;42.020;23.992;2022-12-29T06:24:37;93704.66;;;0.59;100.00
3250;BME280;1637;42.020;23.992;2022-12-29T06:27:06;93707.09;;;0.64;100.00
3250;BME280;1637;42.020;23.992;2022-12-29T06:29:32;93703.88;;;0.59;100.00
3250;BME280;1637;42.020;23.992;2022-12-29T06:32:01;93701.03;;;0.73;100.00
3250;BME280;1637;42.020;23.992;2022-12-29T06:34:28;93709.53;;;1.37;100.00
3250;BME280;1637;42.020;23.992;2022-12-29T06:36:55;93711.84;;;1.09;100.00
3250;BME280;1637;42.020;23.992;2022-12-29T06:39:22;93715.56;;;1.17;100.00
3250;BME280;1637;42.020;23.992;2022-12-29T06:41:51;93724.41;;;1.12;100.00
3250;BME280;1637;42.020;23.992;2022-12-29T06:44:20;93683.13;;;0.87;100.00
3250;BME280;1637;42.020;23.992;2022-12-29T06:46:47;93724.63;;;1.28;100.00
3250;BME280;1637;42.020;23.992;2022-12-29T06:49:14;93718.47;;;1.24;100.00
3250;BME280;1637;42.020;23.992;2022-12-29T06:51:41;93724.88;;;2.06;100.00
3250;BME280;1637;42.020;23.992;2022-12-29T06:54:08;93732.16;;;3.24;100.00
3250;BME280;1637;42.020;23.992;2022-12-29T06:56:35;93730.50;;;3.07;100.00
3250;BME280;1637;42.020;23.992;2022-12-29T06:59:01;93736.03;;;2.45;100.00
3250;BME280;1637;42.020;23.992;2022-12-29T07:01:30;93731.19;;;1.93;100.00
3250;BME280;1637;42.020;23.992;2022-12-29T07:03:56;93738.31;;;1.51;100.00
3250;BME280;1637;42.020;23.992;2022-12-29T07:06:23;93734.59;;;1.52;100.00
3250;BME280;1637;42.020;23.992;2022-12-29T07:08:50;93735.41;;;1.23;100.00
3250;BME280;1637;42.020;23.992;2022-12-29T07:11:20;93729.38;;;1.14;100.00
3250;BME280;1637;42.020;23.992;2022-12-29T07:13:47;93730.44;;;1.21;100.00
3250;BME280;1637;42.020;23.992;2022-12-29T07:16:14;93733.72;;;1.18;100.00
3250;BME280;1637;42.020;23.992;2022-12-29T07:18:42;93735.72;;;1.21;100.00
3250;BME280;1637;42.020;23.992;2022-12-29T07:21:09;93733.88;;;1.13;100.00
3250;BME280;1637;42.020;23.992;2022-12-29T07:23:37;93738.47;;;0.95;100.00
3250;BME280;1637;42.020;23.992;2022-12-29T07:26:05;93735.91;;;1.08;100.00
3250;BME280;1637;42.020;23.992;2022-12-29T07:28:34;93742.38;;;0.89;100.00
3250;BME280;1637;42.020;23.992;2022-12-29T07:31:01;93744.72;;;0.82;100.00
3250;BME280;1637;42.020;23.992;2022-12-29T07:33:29;93742.78;;;1.00;100.00
3250;BME280;1637;42.020;23.992;2022-12-29T07:35:57;93740.19;;;0.91;100.00
3250;BME280;1637;42.020;23.992;2022-12-29T07:38:24;93739.38;;;0.99;100.00
3250;BME280;1637;42.020;23.992;2022-12-29T07:40:55;93743.34;;;1.14;100.00
3250;BME280;1637;42.020;23.992;2022-12-29T07:43:22;93746.63;;;1.11;100.00
3250;BME280;1637;42.020;23.992;2022-12-29T07:45:49;93750.38;;;1.31;100.00
3250;BME280;1637;42.020;23.992;2022-12-29T07:48:16;93752.50;;;1.17;100.00
3250;BME280;1637;42.020;23.992;2022-12-29T07:50:43;93744.34;;;1.30;100.00
3250;BME280;1637;42.020;23.992;2022-12-29T07:53:11;93750.28;;;1.48;100.00
3250;BME280;1637;42.020;23.992;2022-12-29T07:55:38;93742.47;;;1.60;100.00
3250;BME280;1637;42.020;23.992;2022-12-29T07:58:05;93713.09;;;1.41;100.00
3250;BME280;1637;42.020;23.992;2022-12-29T08:00:32;93714.44;;;1.68;100.00
3250;BME280;1637;42.020;23.992;2022-12-29T08:02:59;93745.16;;;2.14;100.00
3250;BME280;1637;42.020;23.992;2022-12-29T08:05:26;93750.06;;;2.24;100.00
3250;BME280;1637;42.020;23.992;2022-12-29T08:07:52;93753.56;;;2.49;100.00
3250;BME280;1637;42.020;23.992;2022-12-29T08:10:21;93757.66;;;2.59;100.00
3250;BME280;1637;42.020;23.992;2022-12-29T08:12:47;93753.19;;;2.51;100.00
3250;BME280;1637;42.020;23.992;2022-12-29T08:15:14;93756.84;;;2.46;100.00
3250;BME280;1637;42.020;23.992;2022-12-29T08:17:41;93757.16;;;2.45;100.00
3250;BME280;1637;42.020;23.992;2022-12-29T08:20:09;93747.75;;;2.35;100.00
3250;BME280;1637;42.020;23.992;2022-12-29T08:22:36;93754.16;;;2.34;100.00
3250;BME280;1637;42.020;23.992;2022-12-29T08:25:03;93768.38;;;2.74;100.00
3250;BME280;1637;42.020;23.992;2022-12-29T08:27:32;93759.13;;;2.93;100.00
3250;BME280;1637;42.020;23.992;2022-12-29T08:29:58;93761.81;;;3.05;100.00
3250;BME280;1637;42.020;23.992;2022-12-29T08:32:26;93756.59;;;2.84;100.00
3250;BME280;1637;42.020;23.992;2022-12-29T08:34:53;93755.91;;;2.63;100.00
3250;BME280;1637;42.020;23.992;2022-12-29T08:37:20;93721.63;;;2.21;100.00
3250;BME280;1637;42.020;23.992;2022-12-29T08:39:47;93746.00;;;2.27;100.00
3250;BME280;1637;42.020;23.992;2022-12-29T08:42:14;93724.75;;;2.35;100.00
3250;BME280;1637;42.020;23.992;2022-12-29T08:44:42;93750.84;;;2.70;100.00
3250;BME280;1637;42.020;23.992;2022-12-29T08:47:09;93729.31;;;2.47;100.00
3250;BME280;1637;42.020;23.992;2022-12-29T08:49:36;93740.94;;;2.67;100.00
3250;BME280;1637;42.020;23.992;2022-12-29T08:52:04;93733.34;;;2.78;100.00
3250;BME280;1637;42.020;23.992;2022-12-29T08:54:31;93738.06;;;2.72;100.00
3250;BME280;1637;42.020;23.992;2022-12-29T08:56:57;93717.03;;;2.88;100.00
3250;BME280;1637;42.020;23.992;2022-12-29T08:59:24;93724.13;;;3.08;100.00
3250;BME280;1637;42.020;23.992;2022-12-29T09:01:52;93726.75;;;3.32;100.00
3250;BME280;1637;42.020;23.992;2022-12-29T09:04:20;93719.16;;;3.06;100.00
3250;BME280;1637;42.020;23.992;2022-12-29T09:06:49;93718.94;;;3.24;100.00
3250;BME280;1637;42.020;23.992;2022-12-29T09:09:16;93715.72;;;3.42;100.00
3250;BME280;1637;42.020;23.992;2022-12-29T09:11:44;93723.31;;;3.96;100.00
3250;BME280;1637;42.020;23.992;2022-12-29T09:14:11;93721.72;;;4.63;97.99
3250;BME280;1637;42.020;23.992;2022-12-29T09:16:38;93724.72;;;5.40;93.61
3250;BME280;1637;42.020;23.992;2022-12-29T09:19:20;93709.72;;;5.99;90.19
3250;BME280;1637;42.020;23.992;2022-12-29T09:21:47;93704.13;;;6.23;85.32
3250;BME280;1637;42.020;23.992;2022-12-29T09:24:14;93711.53;;;6.33;83.96
3250;BME280;1637;42.020;23.992;2022-12-29T09:26:41;93708.28;;;6.63;81.26
3250;BME280;1637;42.020;23.992;2022-12-29T09:29:07;93709.44;;;7.56;78.85
3250;BME280;1637;42.020;23.992;2022-12-29T09:31:34;93700.66;;;7.82;75.03
3250;BME280;1637;42.020;23.992;2022-12-29T09:34:01;93702.78;;;8.30;74.31
3250;BME280;1637;42.020;23.992;2022-12-29T09:36:29;93688.28;;;8.60;72.98
3250;BME280;1637;42.020;23.992;2022-12-29T09:38:56;93694.31;;;8.91;71.07
3250;BME280;1637;42.020;23.992;2022-12-29T09:41:26;93685.19;;;8.58;72.73
3250;BME280;1637;42.020;23.992;2022-12-29T09:44:05;93698.72;;;8.76;72.23
3250;BME280;1637;42.020;23.992;2022-12-29T09:46:35;93675.44;;;8.77;72.43
3250;BME280;1637;42.020;23.992;2022-12-29T09:49:11;93673.41;;;9.51;69.62
3250;BME280;1637;42.020;23.992;2022-12-29T09:51:43;93672.41;;;9.22;70.14
3250;BME280;1637;42.020;23.992;2022-12-29T09:54:37;93667.16;;;9.33;70.93
3250;BME280;1637;42.020;23.992;2022-12-29T09:57:13;93671.88;;;8.62;71.71
3250;BME280;1637;42.020;23.992;2022-12-29T09:59:44;93659.47;;;9.24;70.82
3250;BME280;1637;42.020;23.992;2022-12-29T10:02:26;93649.31;;;8.96;71.43
3250;BME280;1637;42.020;23.992;2022-12-29T10:04:55;93647.16;;;9.16;71.76
3250;BME280;1637;42.020;23.992;2022-12-29T10:07:31;93635.72;;;9.74;69.38
3250;BME280;1637;42.020;23.992;2022-12-29T10:10:05;93628.69;;;9.48;69.04
3250;BME280;1637;42.020;23.992;2022-12-29T10:12:51;93628.03;;;9.69;69.70
3250;BME280;1637;42.020;23.992;2022-12-29T10:15:33;93630.34;;;10.68;66.67
3250;BME280;1637;42.020;23.992;2022-12-29T10:18:20;93619.66;;;11.00;64.20
3250;BME280;1637;42.020;23.992;2022-12-29T10:20:55;93621.03;;;10.26;66.51
3250;BME280;1637;42.020;23.992;2022-12-29T10:23:28;93619.13;;;10.27;67.65
3250;BME280;1637;42.020;23.992;2022-12-29T10:25:59;93624.19;;;10.64;67.03
3250;BME280;1637;42.020;23.992;2022-12-29T10:28:34;93620.78;;;10.74;66.65
3250;BME280;1637;42.020;23.992;2022-12-29T10:31:13;93619.25;;;10.80;65.65
3250;BME280;1637;42.020;23.992;2022-12-29T10:33:46;93616.94;;;10.86;66.30
3250;BME280;1637;42.020;23.992;2022-12-29T10:36:18;93603.13;;;10.38;66.51
3250;BME280;1637;42.020;23.992;2022-12-29T10:38:53;93585.34;;;9.90;69.20
3250;BME280;1637;42.020;23.992;2022-12-29T10:41:26;93594.59;;;10.14;68.83
3250;BME280;1637;42.020;23.992;2022-12-29T10:43:56;93592.53;;;9.79;70.11
3250;BME280;1637;42.020;23.992;2022-12-29T10:46:27;93582.69;;;9.97;70.87
3250;BME280;1637;42.020;23.992;2022-12-29T10:48:55;93585.50;;;10.37;69.32
3250;BME280;1637;42.020;23.992;2022-12-29T10:51:24;93587.38;;;10.25;70.89
3250;BME280;1637;42.020;23.992;2022-12-29T10:53:57;93582.78;;;10.22;70.19
3250;BME280;1637;42.020;23.992;2022-12-29T10:56:31;93579.25;;;10.00;70.91
3250;BME280;1637;42.020;23.992;2022-12-29T10:59:03;93570.41;;;9.86;71.82
3250;BME280;1637;42.020;23.992;2022-12-29T11:01:38;93574.94;;;9.71;72.51
3250;BME280;1637;42.020;23.992;2022-12-29T11:04:28;93564.28;;;9.82;71.70
3250;BME280;1637;42.020;23.992;2022-12-29T11:07:00;93566.28;;;10.10;72.65
3250;BME280;1637;42.020;23.992;2022-12-29T11:09:31;93563.91;;;9.87;71.70
3250;BME280;1637;42.020;23.992;2022-12-29T11:11:59;93555.88;;;9.76;72.26
3250;BME280;1637;42.020;23.992;2022-12-29T11:14:28;93559.28;;;9.80;72.64
3250;BME280;1637;42.020;23.992;2022-12-29T11:16:57;93555.13;;;9.86;72.81
3250;BME280;1637;42.020;23.992;2022-12-29T11:19:26;93548.06;;;9.46;73.55
3250;BME280;1637;42.020;23.992;2022-12-29T11:21:54;93547.38;;;9.63;74.16
3250;BME280;1637;42.020;23.992;2022-12-29T11:24:24;93550.41;;;9.58;73.34
3250;BME280;1637;42.020;23.992;2022-12-29T11:26:54;93534.75;;;9.60;74.32
3250;BME280;1637;42.020;23.992;2022-12-29T11:29:37;93533.28;;;9.70;74.40
3250;BME280;1637;42.020;23.992;2022-12-29T11:32:11;93532.47;;;9.59;74.39
3250;BME280;1637;42.020;23.992;2022-12-29T11:34:38;93534.47;;;9.83;74.08
3250;BME280;1637;42.020;23.992;2022-12-29T11:37:11;93530.75;;;10.20;74.27
3250;BME280;1637;42.020;23.992;2022-12-29T11:39:41;93524.69;;;10.30;72.79
3250;BME280;1637;42.020;23.992;2022-12-29T11:42:16;93522.41;;;10.46;71.77
3250;BME280;1637;42.020;23.992;2022-12-29T11:44:45;93510.88;;;10.21;72.24
3250;BME280;1637;42.020;23.992;2022-12-29T11:47:23;93523.09;;;10.15;71.83
3250;BME280;1637;42.020;23.992;2022-12-29T11:49:54;93528.06;;;10.09;71.67
3250;BME280;1637;42.020;23.992;2022-12-29T11:52:24;93504.41;;;10.32;70.81
3250;BME280;1637;42.020;23.992;2022-12-29T11:54:52;93520.88;;;10.74;71.44
3250;BME280;1637;42.020;23.992;2022-12-29T11:57:22;93520.84;;;11.02;69.34
3250;BME280;1637;42.020;23.992;2022-12-29T11:59:50;93483.38;;;10.52;70.09
3250;BME280;1637;42.020;23.992;2022-12-29T12:02:26;93502.50;;;10.51;71.09
3250;BME280;1637;42.020;23.992;2022-12-29T12:05:01;93493.28;;;10.94;71.24
3250;BME280;1637;42.020;23.992;2022-12-29T12:07:37;93511.97;;;11.41;71.99
3250;BME280;1637;42.020;23.992;2022-12-29T12:10:13;93514.59;;;11.58;69.64
3250;BME280;1637;42.020;23.992;2022-12-29T12:12:50;93508.91;;;11.24;69.28
3250;BME280;1637;42.020;23.992;2022-12-29T12:15:20;93501.72;;;11.00;69.76
3250;BME280;1637;42.020;23.992;2022-12-29T12:17:52;93502.44;;;11.18;69.88
3250;BME280;1637;42.020;23.992;2022-12-29T12:20:22;93500.41;;;11.54;69.79
3250;BME280;1637;42.020;23.992;2022-12-29T12:23:01;93503.09;;;11.61;68.06
3250;BME280;1637;42.020;23.992;2022-12-29T12:25:33;93500.34;;;11.68;67.12
3250;BME280;1637;42.020;23.992;2022-12-29T12:28:10;93489.31;;;11.56;66.40
3250;BME280;1637;42.020;23.992;2022-12-29T12:30:40;93477.88;;;11.30;67.46
3250;BME280;1637;42.020;23.992;2022-12-29T12:33:16;93486.22;;;11.57;67.15
3250;BME280;1637;42.020;23.992;2022-12-29T12:36:04;93491.94;;;11.66;67.20
3250;BME280;1637;42.020;23.992;2022-12-29T12:38:40;93477.66;;;11.91;66.57
3250;BME280;1637;42.020;23.992;2022-12-29T12:41:16;93488.75;;;12.00;65.60
3250;BME280;1637;42.020;23.992;2022-12-29T12:43:50;93482.72;;;11.71;65.48
3250;BME280;1637;42.020;23.992;2022-12-29T12:46:38;93488.00;;;11.96;66.49
3250;BME280;1637;42.020;23.992;2022-12-29T12:49:23;93482.69;;;11.82;65.95
3250;BME280;1637;42.020;23.992;2022-12-29T12:52:02;93476.97;;;11.80;65.39
3250;BME280;1637;42.020;23.992;2022-12-29T12:54:45;93479.19;;;11.88;65.57
3250;BME280;1637;42.020;23.992;2022-12-29T12:57:23;93468.47;;;11.88;65.52
3250;BME280;1637;42.020;23.992;2022-12-29T13:00:02;93488.03;;;11.89;65.04
3250;BME280;1637;42.020;23.992;2022-12-29T13:02:46;93486.38;;;12.05;65.47
3250;BME280;1637;42.020;23.992;2022-12-29T13:05:28;93485.69;;;11.98;65.68
3250;BME280;1637;42.020;23.992;2022-12-29T13:08:22;93457.72;;;11.92;66.74
3250;BME280;1637;42.020;23.992;2022-12-29T13:10:54;93484.97;;;11.87;66.36
3250;BME280;1637;42.020;23.992;2022-12-29T13:13:51;93477.03;;;11.51;66.07
3250;BME280;1637;42.020;23.992;2022-12-29T13:16:30;93477.88;;;11.34;66.88
3250;BME280;1637;42.020;23.992;2022-12-29T13:19:04;93489.38;;;11.34;67.60
3250;BME280;1637;42.020;23.992;2022-12-29T13:21:48;93487.47;;;11.28;67.61
3250;BME280;1637;42.020;23.992;2022-12-29T13:24:22;93455.69;;;11.26;67.48
3250;BME280;1637;42.020;23.992;2022-12-29T13:26:54;93487.09;;;11.22;66.92
3250;BME280;1637;42.020;23.992;2022-12-29T13:29:32;93491.34;;;11.20;67.69
3250;BME280;1637;42.020;23.992;2022-12-29T13:32:13;93495.56;;;11.17;67.59
3250;BME280;1637;42.020;23.992;2022-12-29T13:34:56;93497.09;;;11.11;67.95
3250;BME280;1637;42.020;23.992;2022-12-29T13:37:31;93490.97;;;11.07;68.26
3250;BME280;1637;42.020;23.992;2022-12-29T13:40:04;93495.59;;;10.99;68.35